Rosiori de Vede, Romania
Current Conditions -  °F | °C
As of 8:00 PM on Friday 28 Nov 2014 (Local Time) from LRCV Reporting Station
Clear Clear  
Wind Chill: 32°   Ceiling: Unl
Heat Index: 32°   Visibility: 4mi
Dew Point: 27°   Wind: 2mph
Humidity: 80%   Direction: 100°E
Pressure: 30.24"   Gusts: NA
Location:  44.12°N, 25°E
Report Text: LRCV 281700Z 10002KT 7000 NSC 00/M03 Q1024 R09/19//95
Loading
Personal Weather Stations






























Interactive Weather Map New forecast layout! Learn more

10-Day Weather Forecast

Advertisements
Track Severe Weather on mobile